createdAt,value
2023-05-18T00:01:46.967Z,2.10
2023-05-18T00:06:39.786Z,2.90
2023-05-18T00:11:33.742Z,2.70
2023-05-18T00:16:26.707Z,3.90
2023-05-18T00:21:20.599Z,3.10
2023-05-18T00:26:13.443Z,3.30
2023-05-18T00:31:07.858Z,2.40
2023-05-18T00:36:00.728Z,1.80
2023-05-18T00:40:53.559Z,2.10
2023-05-18T00:45:46.414Z,2.30
2023-05-18T00:50:39.413Z,2.20
2023-05-18T00:55:32.683Z,2.70
2023-05-18T01:00:25.967Z,2.00
2023-05-18T01:05:20.284Z,1.90
2023-05-18T01:10:14.986Z,2.40
2023-05-18T01:15:12.044Z,2.40
2023-05-18T01:20:20.572Z,3.20
2023-05-18T01:25:23.827Z,2.80
2023-05-18T01:30:18.385Z,2.70
2023-05-18T01:35:11.307Z,2.60
2023-05-18T01:40:06.914Z,3.00
2023-05-18T01:45:11.233Z,2.10
2023-05-18T01:50:12.002Z,2.40
2023-05-18T01:55:07.171Z,3.50
2023-05-18T02:00:01.331Z,2.60
2023-05-18T02:04:54.573Z,2.30
2023-05-18T02:09:47.706Z,2.20
2023-05-18T02:14:40.629Z,3.50
2023-05-18T02:19:33.494Z,2.80
2023-05-18T02:24:26.624Z,2.40
2023-05-18T02:29:19.549Z,2.30
2023-05-18T02:34:12.488Z,2.40
2023-05-18T02:39:06.443Z,3.00
2023-05-18T02:43:59.385Z,2.40
2023-05-18T02:48:52.784Z,3.00
2023-05-18T02:53:45.821Z,3.10
2023-05-18T02:58:40.768Z,2.70
2023-05-18T03:03:37.334Z,2.40
2023-05-18T03:08:31.770Z,3.90
2023-05-18T03:13:25.310Z,2.60
2023-05-18T03:18:21.601Z,2.30
2023-05-18T03:23:14.552Z,2.10
2023-05-18T03:28:08.757Z,2.20
2023-05-18T03:33:03.359Z,2.60
2023-05-18T03:37:57.204Z,2.60
2023-05-18T03:42:50.305Z,3.30
2023-05-18T03:47:43.206Z,3.00
2023-05-18T03:52:37.175Z,2.30
2023-05-18T03:57:33.771Z,3.00
2023-05-18T04:02:27.275Z,2.30
2023-05-18T04:07:22.381Z,2.20
2023-05-18T04:12:15.265Z,2.10
2023-05-18T04:17:08.492Z,2.80
2023-05-18T04:22:04.967Z,2.60
2023-05-18T04:26:59.617Z,2.70
2023-05-18T04:31:53.802Z,3.50
2023-05-18T04:36:46.792Z,1.90
2023-05-18T04:41:42.419Z,2.40
2023-05-18T04:46:39.849Z,2.40
2023-05-18T04:51:34.680Z,2.90
2023-05-18T04:56:27.552Z,2.40
2023-05-18T05:01:20.695Z,2.20
2023-05-18T05:06:14.602Z,3.10
2023-05-18T05:11:07.579Z,2.50
2023-05-18T05:16:00.785Z,2.10
2023-05-18T05:20:55.559Z,2.30
2023-05-18T05:25:48.478Z,3.40
2023-05-18T05:30:41.388Z,1.80
2023-05-18T05:35:34.599Z,1.80
2023-05-18T05:40:27.862Z,3.10
2023-05-18T05:45:21.392Z,1.70
2023-05-18T05:50:18.346Z,1.70
2023-05-18T05:55:12.916Z,2.30
2023-05-18T06:00:10.567Z,1.70
2023-05-18T06:05:23.728Z,1.50
2023-05-18T06:10:17.905Z,1.70
2023-05-18T06:15:11.513Z,2.50
2023-05-18T06:20:07.828Z,1.90
2023-05-18T06:25:00.757Z,1.60
2023-05-18T06:30:05.775Z,1.30
2023-05-18T06:35:24.260Z,1.80
2023-05-18T06:40:17.626Z,1.60
2023-05-18T06:45:11.042Z,1.70
2023-05-18T06:50:14.842Z,1.40
2023-05-18T06:55:09.324Z,1.70
2023-05-18T07:00:02.216Z,1.30
2023-05-18T07:04:56.719Z,2.20
2023-05-18T07:09:49.986Z,1.50
2023-05-18T07:14:42.888Z,1.30
2023-05-18T07:19:36.113Z,1.10
2023-05-18T07:24:28.980Z,1.40
2023-05-18T07:29:22.034Z,1.40
2023-05-18T07:34:14.999Z,1.40
2023-05-18T07:39:08.338Z,1.10
2023-05-18T07:44:01.156Z,1.60
2023-05-18T07:48:53.975Z,1.10
2023-05-18T07:53:47.574Z,1.70
2023-05-18T07:58:41.916Z,1.30
2023-05-18T08:03:34.805Z,1.70
2023-05-18T08:08:27.666Z,1.00
2023-05-18T08:13:21.157Z,1.00
2023-05-18T08:18:14.852Z,1.20
2023-05-18T08:23:07.703Z,1.10
2023-05-18T08:28:00.724Z,1.10
2023-05-18T08:32:53.970Z,1.20
2023-05-18T08:37:46.846Z,1.50
2023-05-18T08:43:04.893Z,1.00
2023-05-18T08:52:57.204Z,1.40
2023-05-18T08:57:56.424Z,1.40
2023-05-18T09:02:50.408Z,0.90
2023-05-18T09:07:44.704Z,2.30
2023-05-18T09:12:38.053Z,1.10
2023-05-18T09:17:30.924Z,1.30
2023-05-18T09:22:23.807Z,1.60
2023-05-18T09:27:17.264Z,1.60
2023-05-18T09:32:12.157Z,1.50
2023-05-18T09:37:05.146Z,1.20
2023-05-18T09:41:58.459Z,1.10
2023-05-18T09:46:57.082Z,1.00
2023-05-18T09:51:50.041Z,1.60
2023-05-18T09:56:52.279Z,1.50
2023-05-18T10:02:08.933Z,1.40
2023-05-18T10:07:03.370Z,1.30
2023-05-18T10:11:56.212Z,0.90
2023-05-18T10:16:51.643Z,1.10
2023-05-18T10:21:48.308Z,1.00
2023-05-18T10:26:44.327Z,1.30
2023-05-18T10:31:40.079Z,1.20
2023-05-18T10:36:36.028Z,1.50
2023-05-18T10:41:30.908Z,0.90
2023-05-18T10:46:26.886Z,1.30
2023-05-18T10:51:21.526Z,1.10
2023-05-18T10:56:17.249Z,1.20
2023-05-18T11:01:12.762Z,1.20
2023-05-18T11:06:15.171Z,1.10
2023-05-18T11:11:08.540Z,1.10
2023-05-18T11:16:01.447Z,1.00
2023-05-18T11:20:54.290Z,1.00
2023-05-18T11:25:49.891Z,0.70
2023-05-18T11:30:42.651Z,1.10
2023-05-18T11:35:37.393Z,0.90
2023-05-18T11:40:48.174Z,1.30
2023-05-18T11:45:53.752Z,1.00
2023-05-18T11:50:48.249Z,0.90
2023-05-18T11:55:42.757Z,1.70
2023-05-18T12:00:37.385Z,0.90
2023-05-18T12:05:36.846Z,1.00
2023-05-18T12:10:30.823Z,1.10
2023-05-18T12:15:25.417Z,1.60
2023-05-18T12:20:19.302Z,1.20
2023-05-18T12:25:12.950Z,1.20
2023-05-18T12:30:06.268Z,0.90
2023-05-18T12:34:59.851Z,1.20
2023-05-18T12:39:55.574Z,0.80
2023-05-18T12:44:48.494Z,1.50
2023-05-18T12:49:49.490Z,0.80
2023-05-18T12:55:00.072Z,0.80
2023-05-18T12:59:54.836Z,1.40
2023-05-18T13:04:47.782Z,1.00
2023-05-18T13:09:47.878Z,1.50
2023-05-18T13:14:41.105Z,0.70
2023-05-18T13:19:36.273Z,0.70
2023-05-18T13:24:29.180Z,0.70
2023-05-18T13:29:22.097Z,0.90
2023-05-18T13:34:14.923Z,0.80
2023-05-18T13:39:07.761Z,0.80
2023-05-18T13:44:00.647Z,0.80
2023-05-18T13:48:53.514Z,0.70
2023-05-18T13:53:46.307Z,0.90
2023-05-18T13:58:39.163Z,1.20
2023-05-18T14:03:34.228Z,0.80
2023-05-18T14:08:27.305Z,0.90
2023-05-18T14:13:20.103Z,1.10
2023-05-18T14:18:13.025Z,1.00
2023-05-18T14:23:07.557Z,0.80
2023-05-18T14:28:01.888Z,1.00
2023-05-18T14:32:54.773Z,1.10
2023-05-18T14:37:47.684Z,1.00
2023-05-18T14:42:40.542Z,1.00
2023-05-18T14:47:33.428Z,1.20
2023-05-18T14:52:26.356Z,1.00
2023-05-18T14:57:19.229Z,1.10
2023-05-18T15:02:12.155Z,1.00
2023-05-18T15:07:05.851Z,1.50
2023-05-18T15:11:58.713Z,1.20
2023-05-18T15:16:51.913Z,0.80
2023-05-18T15:21:45.047Z,0.90
2023-05-18T15:26:37.959Z,1.20
2023-05-18T15:31:30.929Z,1.10
2023-05-18T15:36:25.408Z,0.80
2023-05-18T15:41:19.290Z,0.90
2023-05-18T15:46:12.699Z,1.20
2023-05-18T15:51:05.608Z,1.10
2023-05-18T15:55:59.579Z,1.20
2023-05-18T16:00:52.815Z,1.30
2023-05-18T16:05:45.762Z,1.00
2023-05-18T16:10:38.708Z,0.90
2023-05-18T16:15:32.001Z,1.30
2023-05-18T16:20:26.832Z,1.20
2023-05-18T16:25:23.346Z,1.20
2023-05-18T16:30:16.329Z,1.70
2023-05-18T16:35:09.698Z,1.20
2023-05-18T16:40:02.554Z,1.30
2023-05-18T16:44:55.750Z,1.00
2023-05-18T16:49:49.652Z,1.20
2023-05-18T16:54:42.966Z,1.20
2023-05-18T16:59:37.259Z,1.70
2023-05-18T17:04:34.104Z,1.60
2023-05-18T17:09:26.967Z,1.30
2023-05-18T17:14:19.861Z,1.50
2023-05-18T17:19:12.800Z,1.10
2023-05-18T17:24:07.132Z,1.70
2023-05-18T17:28:59.965Z,1.50
2023-05-18T17:33:57.334Z,1.20
2023-05-18T17:38:50.195Z,1.50
2023-05-18T17:43:43.102Z,1.50
2023-05-18T17:48:36.214Z,1.60
2023-05-18T17:53:29.062Z,2.40
2023-05-18T17:58:22.012Z,6.90
2023-05-18T18:03:15.047Z,6.10
2023-05-18T18:08:08.153Z,7.70
2023-05-18T18:13:01.163Z,6.00
2023-05-18T18:17:55.206Z,2.80
2023-05-18T18:22:48.611Z,2.20
2023-05-18T18:27:41.645Z,2.10
2023-05-18T18:32:36.069Z,2.60
2023-05-18T18:37:29.317Z,2.70
2023-05-18T18:42:22.310Z,2.10
2023-05-18T18:47:15.646Z,2.10
2023-05-18T18:52:08.637Z,2.40
2023-05-18T18:57:02.084Z,2.10
2023-05-18T19:01:55.753Z,2.10
2023-05-18T19:06:49.114Z,2.50
2023-05-18T19:11:42.048Z,2.30
2023-05-18T19:16:35.479Z,2.90
2023-05-18T19:21:29.241Z,2.90
2023-05-18T19:26:22.904Z,3.10
2023-05-18T19:31:15.807Z,3.30
2023-05-18T19:36:10.433Z,4.80
2023-05-18T19:41:03.355Z,4.70
2023-05-18T19:45:56.249Z,5.90
2023-05-18T19:50:49.128Z,7.50
2023-05-18T19:55:42.334Z,6.90
2023-05-18T20:00:35.254Z,5.90
2023-05-18T20:05:28.156Z,8.40
2023-05-18T20:10:21.295Z,7.30
2023-05-18T20:15:18.008Z,8.10
2023-05-18T20:20:12.489Z,8.80
2023-05-18T20:25:08.530Z,8.40
2023-05-18T20:30:01.510Z,9.50
2023-05-18T20:34:54.343Z,8.50
2023-05-18T20:39:50.784Z,8.70
2023-05-18T20:44:44.045Z,6.70
2023-05-18T20:49:37.056Z,7.30
2023-05-18T20:54:30.260Z,8.10
2023-05-18T20:59:23.477Z,6.60
2023-05-18T21:04:19.463Z,8.40
2023-05-18T21:09:13.847Z,7.70
2023-05-18T21:14:08.558Z,7.20
2023-05-18T21:19:01.965Z,6.90
2023-05-18T21:23:54.995Z,6.20
2023-05-18T21:28:49.871Z,5.50
2023-05-18T21:33:47.644Z,5.00
2023-05-18T21:38:40.618Z,4.50
2023-05-18T21:43:33.519Z,5.60
2023-05-18T21:48:26.806Z,5.50
2023-05-18T21:53:20.494Z,4.60
2023-05-18T21:58:13.754Z,4.20
2023-05-18T22:03:06.644Z,3.80
2023-05-18T22:07:59.790Z,4.60
2023-05-18T22:12:52.713Z,4.50
2023-05-18T22:17:46.514Z,3.90
2023-05-18T22:22:40.510Z,3.50
2023-05-18T22:27:33.898Z,3.10
2023-05-18T22:32:26.889Z,3.80
2023-05-18T22:37:19.828Z,3.50
2023-05-18T22:42:12.684Z,3.40
2023-05-18T22:47:06.034Z,3.30
2023-05-18T22:51:59.331Z,3.00
2023-05-18T22:56:56.012Z,3.20
2023-05-18T23:01:52.840Z,3.90
2023-05-18T23:06:48.811Z,4.30
2023-05-18T23:11:44.644Z,6.10
2023-05-18T23:16:37.683Z,4.50
2023-05-18T23:21:31.854Z,3.70
2023-05-18T23:26:25.071Z,3.30
2023-05-18T23:31:18.475Z,3.40
2023-05-18T23:36:14.809Z,3.10
2023-05-18T23:41:08.705Z,2.90
2023-05-18T23:46:02.364Z,2.90
2023-05-18T23:50:58.266Z,2.40
2023-05-18T23:55:52.140Z,2.30
